Time;durP1;ratioP1;P1;durP2;ratioP2;P2;SDS_P1;SDS_P2;PMS_P1;PMS_P2;Temp;Humidity;BMP_temperature;BMP_pressure;BME280_temperature;BME280_humidity;BME280_pressure;Samples;Min_cycle;Max_cycle;Signal;HPM_P1;HPM_P2
2021/10/14 00:00:52;;;;;;;9.95;4.63;;;11.80;94.90;;;;;;4981513;28;20014;-64
2021/10/14 00:03:17;;;;;;;6.75;4.47;;;11.70;95.10;;;;;;4990331;28;20538;-63
2021/10/14 00:05:43;;;;;;;5.82;4.40;;;11.70;95.10;;;;;;4996923;28;20026;-64
2021/10/14 00:08:08;;;;;;;7.57;4.50;;;11.80;95.30;;;;;;4998891;28;20026;-64
2021/10/14 00:10:34;;;;;;;6.90;4.32;;;11.80;95.50;;;;;;4997597;28;20516;-64
2021/10/14 00:12:59;;;;;;;9.45;4.95;;;11.80;95.60;;;;;;4996883;28;20514;-64
2021/10/14 00:15:26;;;;;;;9.55;5.20;;;11.70;95.70;;;;;;4996251;28;20025;-63
2021/10/14 00:17:52;;;;;;;10.07;5.22;;;11.80;95.90;;;;;;4993011;28;20113;-63
2021/10/14 00:20:18;;;;;;;5.88;4.22;;;11.80;96.00;;;;;;4997711;28;20153;-64
2021/10/14 00:22:43;;;;;;;7.47;5.40;;;11.80;96.00;;;;;;4994973;28;20019;-64
2021/10/14 00:25:09;;;;;;;8.07;5.72;;;11.80;96.20;;;;;;4996144;28;20045;-63
2021/10/14 00:27:35;;;;;;;11.43;6.00;;;11.80;96.40;;;;;;4996427;28;20076;-63
2021/10/14 00:30:01;;;;;;;7.70;5.45;;;11.70;96.50;;;;;;4999442;28;20028;-63
2021/10/14 00:32:26;;;;;;;8.38;5.60;;;11.70;96.60;;;;;;5001083;28;20496;-63
2021/10/14 00:34:52;;;;;;;11.85;6.75;;;11.70;96.80;;;;;;4994542;28;20082;-63
2021/10/14 00:37:17;;;;;;;9.38;6.30;;;11.70;96.90;;;;;;4999302;28;20545;-64
2021/10/14 00:39:43;;;;;;;10.68;6.63;;;11.70;97.00;;;;;;4995963;28;20036;-63
2021/10/14 00:42:11;;;;;;;9.15;6.57;;;11.60;97.00;;;;;;4995040;28;20026;-64
2021/10/14 00:44:49;;;;;;;14.05;7.70;;;11.70;97.10;;;;;;4992697;28;20018;-63
2021/10/14 00:47:22;;;;;;;9.88;6.28;;;11.60;97.20;;;;;;4993306;28;20025;-63
2021/10/14 00:49:48;;;;;;;10.75;6.88;;;11.60;97.30;;;;;;4991036;28;20018;-63
2021/10/14 00:52:14;;;;;;;11.90;7.88;;;11.60;97.40;;;;;;4993809;28;20030;-63
2021/10/14 00:54:39;;;;;;;12.82;8.75;;;11.60;97.50;;;;;;4997348;28;20094;-63
2021/10/14 00:57:05;;;;;;;9.55;7.35;;;11.60;97.50;;;;;;4993898;28;20027;-63
2021/10/14 00:59:31;;;;;;;12.18;8.23;;;11.60;97.60;;;;;;4995752;28;20038;-63
2021/10/14 01:01:57;;;;;;;12.27;8.82;;;11.70;97.70;;;;;;4992360;28;20375;-63
2021/10/14 01:04:23;;;;;;;10.77;7.50;;;11.60;97.70;;;;;;4998443;28;20018;-63
2021/10/14 01:06:48;;;;;;;9.32;6.63;;;11.60;97.80;;;;;;5000626;28;20050;-63
2021/10/14 01:09:14;;;;;;;9.95;7.75;;;11.60;97.80;;;;;;4997145;28;20032;-63
2021/10/14 01:11:40;;;;;;;12.30;8.40;;;11.70;97.80;;;;;;4985157;28;20030;-63
2021/10/14 01:14:06;;;;;;;10.93;8.15;;;11.70;97.80;;;;;;5001023;28;20382;-63
2021/10/14 01:16:41;;;;;;;11.60;7.97;;;11.70;97.80;;;;;;4994739;28;20030;-63
2021/10/14 01:19:07;;;;;;;12.02;8.00;;;11.70;97.80;;;;;;4993497;28;20069;-63
2021/10/14 01:21:33;;;;;;;11.60;7.75;;;11.70;97.80;;;;;;5001875;28;20106;-63
2021/10/14 01:23:59;;;;;;;13.55;8.52;;;11.70;97.80;;;;;;4996531;28;20097;-63
2021/10/14 01:26:25;;;;;;;11.85;8.32;;;11.70;97.80;;;;;;4994894;28;20398;-63
2021/10/14 01:28:51;;;;;;;12.27;8.77;;;11.80;97.90;;;;;;5001963;28;21102;-63
2021/10/14 01:31:16;;;;;;;12.05;9.18;;;11.70;98.00;;;;;;5000205;28;20045;-63
2021/10/14 01:33:42;;;;;;;15.68;9.32;;;11.70;98.00;;;;;;4996246;28;20018;-63
2021/10/14 01:36:07;;;;;;;15.27;10.55;;;11.70;98.10;;;;;;4997205;28;20483;-63
2021/10/14 01:38:33;;;;;;;14.23;10.63;;;11.80;98.20;;;;;;4991508;28;20037;-63
2021/10/14 01:40:58;;;;;;;14.40;9.75;;;11.70;98.50;;;;;;4993292;28;20023;-63
2021/10/14 01:43:24;;;;;;;13.95;10.90;;;11.80;98.20;;;;;;5000779;28;20490;-63
2021/10/14 01:45:49;;;;;;;16.80;11.70;;;11.80;98.30;;;;;;4998007;28;20435;-63
2021/10/14 01:48:15;;;;;;;13.07;9.50;;;11.80;98.40;;;;;;5006351;28;20037;-64
2021/10/14 01:50:42;;;;;;;14.80;11.23;;;11.80;98.40;;;;;;5003075;28;20378;-63
2021/10/14 01:53:08;;;;;;;17.35;12.45;;;11.80;98.50;;;;;;4998078;28;20467;-63
2021/10/14 01:55:33;;;;;;;16.77;12.38;;;11.70;98.50;;;;;;4993759;28;20034;-63
2021/10/14 01:57:59;;;;;;;18.75;14.15;;;11.80;98.60;;;;;;4996991;28;20042;-63
2021/10/14 02:00:24;;;;;;;17.35;13.43;;;11.80;98.80;;;;;;4991058;28;20104;-63
2021/10/14 02:02:50;;;;;;;16.88;12.77;;;11.80;98.90;;;;;;4997946;28;20058;-63
2021/10/14 02:05:15;;;;;;;17.80;11.65;;;11.80;99.00;;;;;;4993566;28;20053;-63
2021/10/14 02:07:41;;;;;;;15.88;12.35;;;11.80;99.00;;;;;;5002181;28;20053;-63
2021/10/14 02:10:07;;;;;;;18.85;13.82;;;11.90;99.00;;;;;;4998137;28;20114;-63
2021/10/14 02:12:32;;;;;;;19.83;13.43;;;11.80;99.10;;;;;;4998690;28;20486;-63
2021/10/14 02:14:58;;;;;;;19.13;14.00;;;11.90;99.20;;;;;;5004445;28;20023;-63
2021/10/14 02:17:23;;;;;;;21.88;15.57;;;11.90;99.20;;;;;;4995333;28;20031;-63
2021/10/14 02:19:49;;;;;;;20.52;14.05;;;11.80;99.20;;;;;;4993876;28;20019;-63
2021/10/14 02:22:14;;;;;;;20.52;13.60;;;11.90;99.30;;;;;;5005400;28;20105;-63
2021/10/14 02:24:40;;;;;;;15.82;12.75;;;11.80;99.30;;;;;;4991542;28;20038;-63
2021/10/14 02:27:05;;;;;;;15.35;11.13;;;11.80;99.30;;;;;;4993376;28;20026;-63
2021/10/14 02:29:31;;;;;;;18.85;12.52;;;11.90;99.30;;;;;;5003159;28;20038;-63
2021/10/14 02:31:56;;;;;;;16.80;11.70;;;11.90;99.30;;;;;;4995512;28;20026;-63
2021/10/14 02:34:22;;;;;;;16.10;12.63;;;11.90;99.30;;;;;;5000489;28;20482;-63
2021/10/14 02:36:47;;;;;;;20.50;14.15;;;11.90;99.30;;;;;;4997349;28;20030;-63
2021/10/14 02:39:13;;;;;;;16.40;11.82;;;11.90;99.40;;;;;;4993710;28;20017;-63
2021/10/14 02:41:39;;;;;;;19.23;13.32;;;11.90;99.40;;;;;;4996262;28;20023;-63
2021/10/14 02:44:04;;;;;;;17.50;13.70;;;11.90;99.40;;;;;;4999732;28;20113;-63
2021/10/14 02:46:30;;;;;;;16.88;13.13;;;11.90;99.40;;;;;;4996146;28;20509;-63
2021/10/14 02:48:56;;;;;;;18.67;14.32;;;11.90;99.40;;;;;;4996728;28;20081;-63
2021/10/14 02:51:21;;;;;;;17.40;13.43;;;11.90;99.40;;;;;;5003340;28;20105;-63
2021/10/14 02:53:47;;;;;;;16.13;11.70;;;11.90;99.50;;;;;;5013129;28;20076;-63
2021/10/14 02:56:12;;;;;;;18.42;13.60;;;11.90;99.50;;;;;;5001078;28;20062;-63
2021/10/14 02:58:38;;;;;;;20.65;16.42;;;11.90;99.50;;;;;;4999665;28;20038;-63
2021/10/14 03:01:03;;;;;;;20.30;16.42;;;11.80;99.50;;;;;;4979522;28;20145;-63
2021/10/14 03:03:31;;;;;;;18.25;13.57;;;11.90;99.60;;;;;;4994216;28;20023;-63
2021/10/14 03:05:56;;;;;;;19.88;15.40;;;11.80;99.60;;;;;;4999258;28;20014;-63
2021/10/14 03:08:22;;;;;;;18.58;15.07;;;11.80;99.60;;;;;;4997950;28;20045;-63
2021/10/14 03:10:47;;;;;;;17.25;13.95;;;11.80;99.60;;;;;;4995843;28;20437;-63
2021/10/14 03:13:13;;;;;;;19.05;14.70;;;11.80;99.60;;;;;;4997395;28;20479;-64
2021/10/14 03:15:38;;;;;;;18.33;13.50;;;11.80;99.60;;;;;;4994994;28;20076;-63
2021/10/14 03:18:04;;;;;;;18.58;14.48;;;11.80;99.60;;;;;;4994832;28;20525;-63
2021/10/14 03:20:29;;;;;;;17.92;14.57;;;11.80;99.60;;;;;;4999331;28;20038;-63
2021/10/14 03:22:55;;;;;;;17.75;13.25;;;11.80;99.60;;;;;;4999051;28;20102;-63
2021/10/14 03:25:21;;;;;;;18.27;13.45;;;11.80;99.60;;;;;;4995039;28;20092;-63
2021/10/14 03:27:46;;;;;;;19.70;14.77;;;11.80;99.60;;;;;;4999614;28;20054;-63
2021/10/14 03:30:12;;;;;;;18.85;15.75;;;11.80;99.60;;;;;;5001498;28;20128;-63
2021/10/14 03:32:38;;;;;;;21.77;15.10;;;11.80;99.60;;;;;;4994510;28;20554;-63
2021/10/14 03:35:35;;;;;;;;;;;;;;;;;;;;;
2021/10/14 03:38:01;;;;;;;20.40;15.30;;;11.90;99.60;;;;;;4994947;28;20500;-63
2021/10/14 03:40:27;;;;;;;18.17;13.88;;;11.80;99.70;;;;;;4990846;28;20105;-63
2021/10/14 03:42:53;;;;;;;21.45;15.80;;;11.80;99.70;;;;;;4999983;28;20053;-63
2021/10/14 03:45:18;;;;;;;18.77;14.82;;;11.80;99.70;;;;;;4996356;28;20061;-63
2021/10/14 03:47:44;;;;;;;18.20;14.07;;;11.80;99.70;;;;;;4996116;28;20080;-63
2021/10/14 03:50:09;;;;;;;21.02;15.70;;;11.80;99.70;;;;;;4998264;28;20027;-63
2021/10/14 03:52:36;;;;;;;25.77;17.75;;;11.80;99.70;;;;;;4997262;28;20018;-63
2021/10/14 03:55:01;;;;;;;22.73;17.35;;;11.80;99.80;;;;;;5001224;28;20050;-63
2021/10/14 03:57:27;;;;;;;19.77;16.10;;;11.70;99.90;;;;;;4994273;28;20482;-63
2021/10/14 03:59:52;;;;;;;20.38;14.88;;;11.70;99.90;;;;;;4994120;28;20115;-63
2021/10/14 04:02:18;;;;;;;24.90;17.30;;;11.80;99.90;;;;;;4993578;28;20022;-62
2021/10/14 04:04:43;;;;;;;23.27;16.17;;;11.70;99.90;;;;;;4995650;28;20026;-63
2021/10/14 04:07:09;;;;;;;26.63;19.67;;;11.70;99.90;;;;;;4994718;28;20486;-63
2021/10/14 04:09:34;;;;;;;27.52;17.85;;;11.70;99.90;;;;;;4999860;28;20102;-63
2021/10/14 04:12:00;;;;;;;27.48;17.77;;;11.70;99.90;;;;;;4999875;28;20025;-63
2021/10/14 04:14:25;;;;;;;26.40;18.77;;;11.70;99.90;;;;;;4993790;28;20034;-62
2021/10/14 04:16:51;;;;;;;25.15;18.92;;;11.60;99.90;;;;;;4997001;28;20120;-63
2021/10/14 04:19:16;;;;;;;25.85;18.92;;;11.60;99.90;;;;;;4993476;28;20030;-63
2021/10/14 04:21:42;;;;;;;27.95;20.33;;;11.60;99.90;;;;;;4997668;28;20153;-63
2021/10/14 04:24:07;;;;;;;29.40;20.23;;;11.60;99.90;;;;;;4990147;28;20184;-63
2021/10/14 04:26:33;;;;;;;30.17;21.35;;;11.60;99.90;;;;;;5002433;28;20034;-62
2021/10/14 04:28:59;;;;;;;29.63;20.98;;;11.60;99.90;;;;;;4993953;28;20041;-63
2021/10/14 04:31:25;;;;;;;27.23;20.25;;;11.60;99.90;;;;;;4999272;28;20038;-63
2021/10/14 04:33:51;;;;;;;24.38;19.40;;;11.50;99.90;;;;;;4996592;28;20038;-63
2021/10/14 04:36:16;;;;;;;27.50;19.92;;;11.50;99.90;;;;;;4990935;28;20402;-63
2021/10/14 04:38:59;;;;;;;23.15;17.77;;;11.50;99.90;;;;;;4996715;28;20025;-63
2021/10/14 04:41:25;;;;;;;27.10;18.92;;;11.60;99.90;;;;;;4993509;28;20085;-63
2021/10/14 04:43:50;;;;;;;22.77;17.60;;;11.60;99.90;;;;;;4995530;28;20422;-63
2021/10/14 04:46:16;;;;;;;22.52;18.25;;;11.60;99.90;;;;;;4995652;28;20026;-62
2021/10/14 04:48:41;;;;;;;19.73;16.02;;;11.60;99.90;;;;;;4997156;28;20065;-63
2021/10/14 04:51:07;;;;;;;21.83;15.50;;;11.60;99.90;;;;;;4996635;28;20405;-63
2021/10/14 04:53:33;;;;;;;23.55;14.63;;;11.70;99.90;;;;;;4998237;28;20395;-63
2021/10/14 04:55:58;;;;;;;21.73;15.40;;;11.70;99.90;;;;;;4994945;28;20109;-63
2021/10/14 04:58:55;;;;;;;22.73;15.63;;;11.80;99.90;;;;;;4992783;28;20050;-63
2021/10/14 05:01:19;;;;;;;19.15;13.50;;;11.90;99.90;;;;;;5001049;28;20044;-63
2021/10/14 05:03:45;;;;;;;19.70;16.08;;;11.80;99.90;;;;;;4997329;28;20022;-63
2021/10/14 05:06:10;;;;;;;18.45;14.85;;;11.80;99.90;;;;;;5001171;28;20024;-63
2021/10/14 05:08:36;;;;;;;18.35;13.80;;;11.90;99.90;;;;;;4993877;28;20069;-63
2021/10/14 05:11:02;;;;;;;19.77;15.40;;;11.90;99.90;;;;;;4997459;28;20088;-63
2021/10/14 05:13:27;;;;;;;21.73;14.45;;;11.90;99.90;;;;;;4995768;28;20041;-63
2021/10/14 05:15:53;;;;;;;18.05;14.23;;;11.90;99.90;;;;;;5012256;28;20034;-63
2021/10/14 05:18:18;;;;;;;25.38;16.25;;;11.90;99.90;;;;;;4991489;28;20026;-63
2021/10/14 05:20:44;;;;;;;22.73;16.10;;;11.90;99.90;;;;;;5012542;28;20554;-63
2021/10/14 05:23:09;;;;;;;17.65;13.93;;;11.90;99.90;;;;;;5003935;28;20026;-63
2021/10/14 05:25:35;;;;;;;21.10;15.45;;;11.90;99.90;;;;;;5007705;28;20104;-63
2021/10/14 05:28:00;;;;;;;19.38;14.95;;;11.90;99.90;;;;;;5009354;28;20072;-63
2021/10/14 05:30:26;;;;;;;19.27;14.43;;;11.90;99.90;;;;;;5007667;28;20037;-63
2021/10/14 05:32:51;;;;;;;14.77;12.07;;;11.90;99.90;;;;;;4984275;28;20037;-63
2021/10/14 05:35:17;;;;;;;22.05;15.13;;;12.00;99.90;;;;;;5010978;28;20037;-63
2021/10/14 05:38:03;;;;;;;20.48;14.52;;;12.00;99.90;;;;;;5012448;28;20453;-63
2021/10/14 05:41:15;;;;;;;19.38;14.73;;;12.00;99.90;;;;;;5009394;28;20026;-64
2021/10/14 05:43:41;;;;;;;17.50;12.82;;;12.00;99.90;;;;;;5002942;28;20140;-63
2021/10/14 05:46:06;;;;;;;20.52;14.48;;;11.90;99.90;;;;;;5010175;28;20025;-63
2021/10/14 05:48:31;;;;;;;19.52;14.35;;;11.90;99.90;;;;;;4997874;28;20030;-63
2021/10/14 05:50:57;;;;;;;17.83;13.27;;;11.90;99.90;;;;;;5005920;28;20291;-63
2021/10/14 05:53:23;;;;;;;19.35;13.75;;;11.90;99.90;;;;;;5009189;28;20422;-63
2021/10/14 05:55:48;;;;;;;20.52;13.63;;;11.90;99.90;;;;;;4993883;28;20029;-63
2021/10/14 05:58:17;;;;;;;17.23;12.57;;;12.00;99.90;;;;;;5009464;28;20073;-63
2021/10/14 06:00:42;;;;;;;18.55;14.70;;;12.00;99.90;;;;;;4992497;28;20034;-63
2021/10/14 06:03:08;;;;;;;20.27;14.50;;;12.00;99.90;;;;;;5010779;28;20025;-63
2021/10/14 06:05:33;;;;;;;19.50;13.65;;;12.00;99.90;;;;;;5011122;28;20029;-63
2021/10/14 06:07:59;;;;;;;16.80;12.95;;;12.00;99.90;;;;;;4997458;28;20527;-63
2021/10/14 06:10:24;;;;;;;23.70;16.10;;;12.00;99.90;;;;;;4997442;28;20063;-63
2021/10/14 06:12:50;;;;;;;20.35;15.57;;;12.00;99.90;;;;;;5010683;28;20485;-63
2021/10/14 06:15:17;;;;;;;24.15;16.40;;;11.90;99.90;;;;;;5010609;28;20088;-63
2021/10/14 06:17:43;;;;;;;22.38;16.58;;;12.00;99.90;;;;;;5011505;28;20034;-63
2021/10/14 06:20:09;;;;;;;19.02;16.08;;;11.90;99.90;;;;;;5011100;28;20045;-63
2021/10/14 06:22:34;;;;;;;26.30;18.58;;;12.00;99.90;;;;;;5011368;28;20057;-63
2021/10/14 06:25:00;;;;;;;26.73;19.67;;;12.00;99.90;;;;;;5002571;28;20026;-63
2021/10/14 06:27:25;;;;;;;22.92;16.55;;;11.90;99.90;;;;;;5010217;28;20026;-64
2021/10/14 06:29:50;;;;;;;24.45;17.60;;;11.90;99.90;;;;;;5001756;28;20030;-64
2021/10/14 06:32:16;;;;;;;22.20;16.65;;;12.00;99.90;;;;;;5008806;28;20441;-63
2021/10/14 06:34:42;;;;;;;26.80;17.52;;;12.00;99.90;;;;;;5015261;28;20033;-63
2021/10/14 06:37:07;;;;;;;24.65;18.00;;;12.00;99.90;;;;;;5014098;28;20088;-63
2021/10/14 06:39:33;;;;;;;24.15;17.88;;;11.90;99.90;;;;;;5000261;28;20482;-63
2021/10/14 06:42:01;;;;;;;24.48;17.42;;;12.00;99.90;;;;;;5001078;28;20030;-63
2021/10/14 06:44:27;;;;;;;22.48;16.88;;;12.00;99.90;;;;;;5010847;28;20026;-63
2021/10/14 06:46:52;;;;;;;21.83;17.00;;;12.00;99.90;;;;;;5000103;28;20033;-63
2021/10/14 06:49:18;;;;;;;23.30;17.48;;;12.10;99.90;;;;;;4990773;28;20027;-63
2021/10/14 06:51:44;;;;;;;19.55;15.15;;;12.10;99.90;;;;;;5009454;28;20488;-63
2021/10/14 06:54:13;;;;;;;23.88;17.77;;;12.10;99.90;;;;;;5013513;28;20438;-63
2021/10/14 06:56:39;;;;;;;25.30;18.90;;;12.10;99.90;;;;;;5008411;28;20041;-63
2021/10/14 06:59:08;;;;;;;24.00;17.73;;;12.10;99.90;;;;;;5012039;28;20768;-63
2021/10/14 07:01:34;;;;;;;24.30;18.33;;;12.10;99.90;;;;;;4990537;28;20054;-63
2021/10/14 07:04:00;;;;;;;23.83;18.17;;;12.10;99.90;;;;;;5011162;28;20049;-63
2021/10/14 07:06:25;;;;;;;24.67;18.10;;;12.10;99.90;;;;;;4985280;28;20049;-64
2021/10/14 07:08:51;;;;;;;24.13;18.17;;;12.10;99.90;;;;;;4994341;28;20589;-64
2021/10/14 07:11:16;;;;;;;32.85;22.40;;;12.10;99.90;;;;;;4993429;28;20026;-63
2021/10/14 07:13:45;;;;;;;29.80;20.25;;;12.10;99.90;;;;;;5013111;28;20026;-63
2021/10/14 07:16:11;;;;;;;29.38;20.38;;;12.10;99.90;;;;;;5013767;28;20408;-64
2021/10/14 07:18:36;;;;;;;26.35;19.25;;;12.10;99.90;;;;;;5012805;28;20101;-64
2021/10/14 07:21:02;;;;;;;23.58;19.33;;;12.10;99.90;;;;;;4999002;28;20112;-64
2021/10/14 07:23:28;;;;;;;31.75;23.08;;;12.10;99.90;;;;;;4999519;28;20076;-64
2021/10/14 07:25:55;;;;;;;30.67;21.73;;;12.10;99.90;;;;;;4992231;28;20390;-63
2021/10/14 07:28:20;;;;;;;28.02;22.00;;;12.20;99.90;;;;;;5007148;28;20060;-63
2021/10/14 07:30:46;;;;;;;30.45;22.88;;;12.20;99.90;;;;;;4999673;28;20033;-63
2021/10/14 07:33:12;;;;;;;25.75;20.15;;;12.20;99.90;;;;;;5014525;28;20081;-63
2021/10/14 07:35:40;;;;;;;25.63;20.20;;;12.20;99.90;;;;;;5013282;28;20540;-62
2021/10/14 07:38:11;;;;;;;26.48;18.88;;;12.20;99.90;;;;;;5013345;28;20022;-62
2021/10/14 07:40:40;;;;;;;21.35;18.05;;;12.20;99.90;;;;;;5011179;28;20037;-62
2021/10/14 07:43:11;;;;;;;26.08;19.58;;;12.20;99.90;;;;;;5001704;28;20474;-62
2021/10/14 07:45:37;;;;;;;27.20;19.88;;;12.30;99.90;;;;;;4995122;28;20081;-62
2021/10/14 07:48:03;;;;;;;23.42;19.40;;;12.30;99.90;;;;;;5006602;28;20034;-63
2021/10/14 07:50:29;;;;;;;25.00;18.05;;;12.40;99.90;;;;;;5006961;28;20033;-63
2021/10/14 07:52:54;;;;;;;27.83;20.70;;;12.30;99.90;;;;;;5013266;28;20028;-63
2021/10/14 07:55:20;;;;;;;25.70;20.13;;;12.40;99.90;;;;;;5012495;28;20453;-63
2021/10/14 07:57:45;;;;;;;27.98;20.27;;;12.40;99.90;;;;;;4998984;28;20486;-63
2021/10/14 08:00:12;;;;;;;28.92;20.85;;;12.40;99.90;;;;;;5003249;28;20073;-63
2021/10/14 08:02:38;;;;;;;27.58;20.15;;;12.40;99.90;;;;;;5007459;28;20477;-63
2021/10/14 08:05:04;;;;;;;30.63;20.63;;;12.40;99.90;;;;;;5007106;28;20026;-63
2021/10/14 08:07:29;;;;;;;28.55;18.80;;;12.40;99.90;;;;;;5005999;28;20052;-63
2021/10/14 08:09:55;;;;;;;23.25;18.30;;;12.40;99.90;;;;;;4995024;28;20022;-63
2021/10/14 08:12:22;;;;;;;26.85;19.83;;;12.50;99.90;;;;;;5013282;28;20113;-63
2021/10/14 08:14:48;;;;;;;30.20;20.38;;;12.50;99.90;;;;;;5008572;28;20527;-62
2021/10/14 08:17:13;;;;;;;27.33;18.60;;;12.50;99.90;;;;;;5005873;28;20022;-63
2021/10/14 08:19:39;;;;;;;24.98;18.92;;;12.50;99.90;;;;;;5006553;28;20084;-63
2021/10/14 08:22:04;;;;;;;29.23;20.60;;;12.50;99.90;;;;;;4998014;28;20079;-62
2021/10/14 08:24:30;;;;;;;29.50;21.05;;;12.50;99.90;;;;;;5013617;28;20096;-62
2021/10/14 08:26:55;;;;;;;27.40;19.83;;;12.60;99.90;;;;;;4999115;28;20478;-62
2021/10/14 08:29:21;;;;;;;33.25;21.30;;;12.60;99.90;;;;;;4990596;28;20040;-63
2021/10/14 08:31:46;;;;;;;27.58;20.45;;;12.60;99.90;;;;;;4997097;28;20037;-63
2021/10/14 08:34:12;;;;;;;26.08;19.48;;;12.60;99.90;;;;;;5001156;28;20026;-63
2021/10/14 08:36:40;;;;;;;30.15;20.42;;;12.60;99.90;;;;;;5012419;28;20029;-63
2021/10/14 08:39:09;;;;;;;28.73;20.27;;;12.70;99.90;;;;;;4994277;28;20022;-63
2021/10/14 08:41:34;;;;;;;22.25;18.15;;;12.70;99.90;;;;;;5013163;28;20454;-63
2021/10/14 08:44:02;;;;;;;26.45;19.15;;;12.70;99.90;;;;;;5010635;28;20037;-63
2021/10/14 08:46:28;;;;;;;27.30;20.48;;;12.70;99.90;;;;;;5006986;28;20026;-63
2021/10/14 08:48:54;;;;;;;27.80;20.30;;;12.70;99.90;;;;;;5004160;28;20105;-63
2021/10/14 08:51:19;;;;;;;26.73;20.42;;;12.70;99.90;;;;;;5011146;28;20446;-63
2021/10/14 08:53:46;;;;;;;28.00;21.45;;;12.80;99.90;;;;;;5008479;28;20022;-63
2021/10/14 08:56:11;;;;;;;27.20;19.90;;;12.80;99.90;;;;;;5005925;28;20061;-63
2021/10/14 08:58:37;;;;;;;31.77;21.20;;;12.80;99.90;;;;;;5005920;28;20479;-63
2021/10/14 09:01:13;;;;;;;29.30;19.77;;;12.80;99.90;;;;;;5008877;28;20109;-63
2021/10/14 09:03:46;;;;;;;26.77;19.65;;;12.90;99.90;;;;;;5008776;28;20113;-63
2021/10/14 09:06:13;;;;;;;22.48;17.52;;;12.90;99.90;;;;;;4981832;28;20056;-63
2021/10/14 09:08:50;;;;;;;27.50;19.75;;;13.00;99.90;;;;;;5001028;28;20536;-63
2021/10/14 09:11:19;;;;;;;20.00;15.85;;;13.10;99.90;;;;;;5012241;28;20030;-63
2021/10/14 09:13:51;;;;;;;27.02;18.98;;;13.10;99.90;;;;;;5012712;28;20018;-63
2021/10/14 09:16:31;;;;;;;31.00;21.70;;;13.20;99.90;;;;;;5010447;28;20052;-63
2021/10/14 09:19:09;;;;;;;26.50;20.20;;;13.20;99.90;;;;;;4999791;28;20405;-63
2021/10/14 09:21:35;;;;;;;27.73;20.58;;;13.20;99.90;;;;;;5011909;28;20020;-63
2021/10/14 09:24:00;;;;;;;27.42;20.48;;;13.20;99.90;;;;;;5005360;28;20023;-63
2021/10/14 09:26:27;;;;;;;27.08;18.70;;;13.20;99.90;;;;;;5005368;28;20536;-63
2021/10/14 09:29:05;;;;;;;32.00;21.67;;;13.30;99.90;;;;;;4997770;28;20076;-62
2021/10/14 09:31:51;;;;;;;22.58;18.17;;;13.40;99.90;;;;;;5011436;28;20084;-63
2021/10/14 09:34:32;;;;;;;29.63;21.77;;;13.40;99.90;;;;;;5004979;28;20015;-63
2021/10/14 09:37:00;;;;;;;29.48;21.30;;;13.40;99.90;;;;;;4993553;28;20096;-63
2021/10/14 09:39:26;;;;;;;27.42;21.08;;;13.40;99.90;;;;;;5010631;28;20501;-63
2021/10/14 09:41:52;;;;;;;29.40;20.52;;;13.40;99.90;;;;;;5010576;28;20026;-63
2021/10/14 09:44:19;;;;;;;28.58;21.40;;;13.40;99.90;;;;;;5011808;28;20020;-63
2021/10/14 09:46:50;;;;;;;33.17;22.30;;;13.40;99.90;;;;;;5000228;28;20101;-63
2021/10/14 09:49:32;;;;;;;30.25;22.67;;;13.50;99.90;;;;;;5004484;28;20105;-63
2021/10/14 09:52:00;;;;;;;30.15;20.67;;;13.50;99.90;;;;;;5004904;28;20041;-64
2021/10/14 09:54:32;;;;;;;27.52;20.77;;;13.60;99.90;;;;;;5011114;28;20094;-63
2021/10/14 09:56:58;;;;;;;25.98;20.55;;;13.60;99.90;;;;;;5008472;28;20493;-63
2021/10/14 09:59:25;;;;;;;28.00;21.85;;;13.70;99.90;;;;;;5006104;28;20053;-63
2021/10/14 10:01:56;;;;;;;28.73;21.35;;;13.70;99.90;;;;;;4975276;28;20023;-63
2021/10/14 10:04:25;;;;;;;28.30;22.38;;;13.80;99.90;;;;;;5006626;28;20018;-63
2021/10/14 10:06:51;;;;;;;29.40;21.75;;;13.80;99.90;;;;;;5013240;28;20037;-63
2021/10/14 10:09:18;;;;;;;29.08;22.13;;;13.90;99.90;;;;;;5009136;28;20029;-63
2021/10/14 10:11:51;;;;;;;32.45;23.15;;;13.90;99.90;;;;;;5014369;28;20022;-63
2021/10/14 10:14:20;;;;;;;29.20;22.55;;;14.00;99.90;;;;;;4994189;28;20028;-63
2021/10/14 10:16:56;;;;;;;;;;;14.00;99.90;;;;;;5003510;28;20033;-63
2021/10/14 10:19:50;;;;;;;29.42;21.67;;;13.90;99.90;;;;;;5006330;28;20404;-63
2021/10/14 10:22:34;;;;;;;25.58;19.40;;;13.90;99.90;;;;;;4996459;28;20382;-63
2021/10/14 10:25:24;;;;;;;26.75;18.95;;;14.00;99.90;;;;;;5006873;28;20026;-63
2021/10/14 10:27:51;;;;;;;23.27;17.90;;;14.00;99.90;;;;;;5011321;28;20029;-63
2021/10/14 10:30:37;;;;;;;25.45;20.48;;;14.10;99.90;;;;;;4999016;28;20109;-63
2021/10/14 10:33:03;;;;;;;25.88;18.55;;;14.10;99.90;;;;;;4986093;28;20749;-63
2021/10/14 10:35:41;;;;;;;22.77;17.65;;;14.20;99.90;;;;;;4996559;28;20083;-63
2021/10/14 10:38:15;;;;;;;25.42;19.10;;;14.30;99.90;;;;;;5010942;28;20084;-63
2021/10/14 10:40:44;;;;;;;22.55;18.08;;;14.30;99.90;;;;;;5005981;28;20029;-63
2021/10/14 10:43:21;;;;;;;27.48;20.00;;;14.30;99.90;;;;;;5000269;28;20102;-63
2021/10/14 10:45:53;;;;;;;25.05;19.13;;;14.30;99.90;;;;;;5004751;28;20033;-63
2021/10/14 10:48:39;;;;;;;25.08;19.33;;;14.40;99.90;;;;;;5012035;28;20029;-64
2021/10/14 10:51:26;;;;;;;26.80;18.95;;;14.50;99.90;;;;;;5007476;28;20458;-63
2021/10/14 10:53:52;;;;;;;26.20;21.23;;;14.50;99.90;;;;;;5008387;28;20083;-63
2021/10/14 10:56:33;;;;;;;25.05;19.15;;;14.50;99.90;;;;;;5010953;28;20038;-63
2021/10/14 10:59:00;;;;;;;25.08;19.05;;;14.60;99.90;;;;;;5005047;28;20113;-63
2021/10/14 11:01:26;;;;;;;26.13;19.83;;;14.60;99.90;;;;;;5005408;28;20022;-63
2021/10/14 11:03:59;;;;;;;25.17;19.48;;;14.70;99.90;;;;;;4992816;28;20022;-63
2021/10/14 11:06:27;;;;;;;26.17;19.92;;;15.00;99.90;;;;;;5013588;28;20029;-64
2021/10/14 11:08:57;;;;;;;23.77;18.00;;;15.50;99.90;;;;;;5005321;28;20094;-64
2021/10/14 11:11:23;;;;;;;24.27;17.23;;;16.20;99.30;;;;;;5007992;28;20081;-64
2021/10/14 11:13:55;;;;;;;28.40;20.58;;;17.10;98.40;;;;;;5012901;28;20422;-64
2021/10/14 11:16:24;;;;;;;28.42;21.25;;;18.30;96.30;;;;;;5013210;28;20030;-64
2021/10/14 11:18:52;;;;;;;27.42;19.98;;;19.00;94.10;;;;;;5005250;28;20034;-64
2021/10/14 11:21:39;;;;;;;31.05;22.25;;;19.20;92.90;;;;;;5013347;28;20048;-64
2021/10/14 11:24:29;;;;;;;;;;;;;;;;;;;;;
2021/10/14 11:26:55;;;;;;;25.10;19.67;;;19.80;91.30;;;;;;5014686;28;20026;-64
2021/10/14 11:29:25;;;;;;;23.73;18.20;;;19.80;90.00;;;;;;5007406;28;20132;-64
2021/10/14 11:32:05;;;;;;;18.30;15.48;;;19.60;89.00;;;;;;5010390;28;20022;-64
2021/10/14 11:34:31;;;;;;;;;;;19.50;89.70;;;;;;4995694;28;20045;-64
2021/10/14 11:36:58;;;;;;;16.98;14.98;;;19.30;90.00;;;;;;5008608;28;19913;-64
2021/10/14 11:39:30;;;;;;;14.25;12.32;;;19.60;89.10;;;;;;5006674;28;20099;-64
2021/10/14 11:41:59;;;;;;;13.63;12.10;;;20.30;87.70;;;;;;4991479;28;20045;-64
2021/10/14 11:44:27;;;;;;;16.52;14.48;;;20.40;85.90;;;;;;5012674;28;20364;-65
2021/10/14 11:46:53;;;;;;;21.33;16.95;;;20.10;86.20;;;;;;4991839;28;20402;-64
2021/10/14 11:49:18;;;;;;;18.38;16.38;;;19.70;86.10;;;;;;4996743;28;20462;-64
2021/10/14 11:51:45;;;;;;;21.58;18.38;;;19.20;86.40;;;;;;5003255;28;20108;-64
2021/10/14 11:54:13;;;;;;;21.05;17.25;;;18.90;86.70;;;;;;5005297;28;20025;-64
2021/10/14 11:56:45;;;;;;;19.60;16.98;;;18.50;87.90;;;;;;4996589;28;20030;-64
2021/10/14 11:59:12;;;;;;;19.10;15.70;;;18.40;88.60;;;;;;5006253;28;20038;-64
2021/10/14 12:02:08;;;;;;;21.13;16.90;;;18.20;89.30;;;;;;5007706;28;20076;-64
2021/10/14 12:04:51;;;;;;;22.52;18.35;;;18.10;89.90;;;;;;5008007;28;20034;-64
2021/10/14 12:07:19;;;;;;;22.40;18.85;;;18.00;90.20;;;;;;5012173;28;20018;-64
2021/10/14 12:09:44;;;;;;;23.75;18.65;;;17.80;90.40;;;;;;5004770;28;20022;-64
2021/10/14 12:12:13;;;;;;;21.70;18.15;;;17.70;90.40;;;;;;5011466;28;20026;-64
2021/10/14 12:14:39;;;;;;;32.63;22.33;;;17.70;90.70;;;;;;5012161;28;20038;-64
2021/10/14 12:17:07;;;;;;;29.50;24.30;;;17.80;90.70;;;;;;4994273;28;20109;-65
2021/10/14 12:19:37;;;;;;;32.05;25.60;;;18.00;90.70;;;;;;5003146;28;20482;-64
2021/10/14 12:22:03;;;;;;;;;;;18.00;90.60;;;;;;5010749;28;20022;-64
2021/10/14 12:24:31;;;;;;;39.22;28.48;;;17.80;90.60;;;;;;4995530;28;19906;-64
2021/10/14 12:26:56;;;;;;;46.13;33.97;;;17.80;90.90;;;;;;4993810;28;20053;-64
2021/10/14 12:29:34;;;;;;;39.72;30.98;;;17.80;90.70;;;;;;5007055;28;20050;-64
2021/10/14 12:32:13;;;;;;;43.92;32.15;;;17.80;90.60;;;;;;5011409;28;20061;-64
2021/10/14 12:34:47;;;;;;;42.63;33.08;;;17.80;90.60;;;;;;5004229;28;20022;-64
2021/10/14 12:37:14;;;;;;;42.63;32.40;;;17.70;90.80;;;;;;5012363;28;20359;-64